Time;durP1;ratioP1;P1;durP2;ratioP2;P2;SDS_P1;SDS_P2;PMS_P1;PMS_P2;Temp;Humidity;BMP_temperature;BMP_pressure;BME280_temperature;BME280_humidity;BME280_pressure;Samples;Min_cycle;Max_cycle;Signal;HPM_P1;HPM_P2
2023/12/30 00:01:50;;;;;;;13.70;3.75;;;4.40;99.90;;;;;;5144355;27;20046;-79
2023/12/30 00:04:16;;;;;;;9.82;4.07;;;4.40;99.90;;;;;;5123669;27;20073;-79
2023/12/30 00:06:43;;;;;;;18.42;5.60;;;4.40;99.90;;;;;;5143097;27;20018;-79
2023/12/30 00:09:09;;;;;;;14.50;4.88;;;4.40;99.90;;;;;;5142169;27;20023;-79
2023/12/30 00:11:35;;;;;;;12.73;3.78;;;4.40;99.90;;;;;;5140722;27;20072;-79
2023/12/30 00:14:01;;;;;;;8.07;3.05;;;4.40;99.90;;;;;;5141301;27;20094;-79
2023/12/30 00:16:30;;;;;;;9.73;3.03;;;4.40;99.90;;;;;;5142161;27;20026;-79
2023/12/30 00:18:56;;;;;;;13.98;3.58;;;4.40;99.90;;;;;;5140625;27;20114;-79
2023/12/30 00:21:22;;;;;;;8.05;3.20;;;4.40;99.90;;;;;;5123437;27;20029;-79
2023/12/30 00:23:49;;;;;;;11.13;2.95;;;4.40;99.90;;;;;;5142168;27;20011;-80
2023/12/30 00:26:25;;;;;;;9.25;2.90;;;4.40;99.90;;;;;;5140555;27;20146;-79
2023/12/30 00:28:52;;;;;;;6.20;2.60;;;4.40;99.90;;;;;;5122741;27;20527;-79
2023/12/30 00:31:28;;;;;;;10.30;2.95;;;4.40;99.90;;;;;;5140270;27;20079;-79
2023/12/30 00:33:57;;;;;;;9.35;2.72;;;4.30;99.90;;;;;;5152628;27;20026;-79
2023/12/30 00:36:22;;;;;;;8.85;3.20;;;4.40;99.90;;;;;;5152278;27;20527;-79
2023/12/30 00:38:50;;;;;;;8.93;3.83;;;4.40;99.90;;;;;;5151813;27;20147;-79
2023/12/30 00:41:15;;;;;;;9.18;2.63;;;4.40;99.90;;;;;;5133135;27;20022;-79
2023/12/30 00:43:42;;;;;;;8.77;2.33;;;4.40;99.90;;;;;;5152193;27;20014;-79
2023/12/30 00:46:08;;;;;;;9.68;2.47;;;4.50;99.90;;;;;;5152194;27;20027;-78
2023/12/30 00:48:34;;;;;;;8.20;2.47;;;4.50;99.90;;;;;;5151985;27;20023;-79
2023/12/30 00:51:01;;;;;;;8.38;2.53;;;4.50;99.90;;;;;;5151692;27;20125;-79
2023/12/30 00:53:27;;;;;;;8.27;2.00;;;4.50;99.90;;;;;;5152055;27;20106;-78
2023/12/30 00:55:54;;;;;;;9.50;2.13;;;4.50;99.90;;;;;;5152081;27;20022;-79
2023/12/30 00:58:23;;;;;;;8.30;2.45;;;4.50;99.90;;;;;;5151209;27;20031;-79
2023/12/30 01:00:49;;;;;;;8.10;2.78;;;4.50;99.90;;;;;;5133680;27;20022;-79
2023/12/30 01:03:15;;;;;;;10.48;2.35;;;4.50;99.90;;;;;;5150694;27;20106;-78
2023/12/30 01:05:41;;;;;;;10.23;2.30;;;4.50;99.90;;;;;;5151592;27;20026;-78
2023/12/30 01:08:07;;;;;;;5.38;2.03;;;4.60;99.90;;;;;;5151241;27;20026;-79
2023/12/30 01:10:33;;;;;;;4.63;1.60;;;4.60;99.90;;;;;;5151915;27;20038;-79
2023/12/30 01:12:58;;;;;;;10.75;2.25;;;4.60;99.90;;;;;;5132725;27;20353;-79
2023/12/30 01:15:24;;;;;;;13.90;3.35;;;4.60;99.90;;;;;;5132658;27;20038;-79
2023/12/30 01:17:50;;;;;;;8.77;3.20;;;4.60;99.90;;;;;;5151344;27;20055;-79
2023/12/30 01:20:15;;;;;;;12.32;2.95;;;4.60;99.90;;;;;;5151159;27;20022;-79
2023/12/30 01:22:41;;;;;;;6.97;2.40;;;4.60;99.90;;;;;;5151690;27;20075;-79
2023/12/30 01:25:08;;;;;;;7.13;1.95;;;4.60;99.90;;;;;;5151351;27;20411;-79
2023/12/30 01:27:34;;;;;;;4.22;1.75;;;4.70;99.90;;;;;;5151181;27;20151;-79
2023/12/30 01:29:59;;;;;;;10.10;2.70;;;4.70;99.90;;;;;;5132564;27;20118;-80
2023/12/30 01:32:25;;;;;;;8.18;2.40;;;4.70;99.90;;;;;;5151561;27;20114;-79
2023/12/30 01:34:51;;;;;;;7.63;2.20;;;4.70;99.90;;;;;;5151707;27;20296;-79
2023/12/30 01:37:17;;;;;;;7.03;2.20;;;4.70;99.90;;;;;;5151111;27;20320;-79
2023/12/30 01:39:42;;;;;;;5.38;2.00;;;4.80;99.90;;;;;;5151907;27;20026;-80
2023/12/30 01:42:08;;;;;;;5.32;2.13;;;4.70;99.90;;;;;;5132376;27;20047;-79
2023/12/30 01:44:35;;;;;;;7.47;2.50;;;4.80;99.90;;;;;;5151350;27;20015;-79
2023/12/30 01:47:01;;;;;;;4.88;1.63;;;4.80;99.90;;;;;;5151062;27;20030;-80
2023/12/30 01:49:27;;;;;;;5.88;1.80;;;4.80;99.90;;;;;;5151580;27;20025;-79
2023/12/30 01:51:53;;;;;;;6.20;1.98;;;4.80;99.90;;;;;;5151329;27;20097;-79
2023/12/30 01:54:21;;;;;;;9.68;2.35;;;4.80;99.90;;;;;;5151062;27;20235;-79
2023/12/30 01:56:49;;;;;;;6.47;1.88;;;4.80;99.90;;;;;;5151955;27;20091;-79
2023/12/30 01:59:18;;;;;;;10.27;2.38;;;4.70;99.90;;;;;;5150693;27;20054;-79
2023/12/30 02:01:47;;;;;;;7.03;2.10;;;4.80;99.90;;;;;;5151029;27;20448;-78
2023/12/30 02:04:13;;;;;;;8.70;2.75;;;4.80;99.90;;;;;;5151686;27;20475;-78
2023/12/30 02:06:39;;;;;;;11.38;2.85;;;4.70;99.90;;;;;;5151670;27;20097;-79
2023/12/30 02:09:08;;;;;;;7.43;2.35;;;4.70;99.90;;;;;;5151169;27;20027;-80
2023/12/30 02:11:34;;;;;;;6.57;2.45;;;4.70;99.90;;;;;;5132845;27;20041;-79
2023/12/30 02:14:01;;;;;;;8.15;2.80;;;4.70;99.90;;;;;;5150899;27;20478;-80
2023/12/30 02:16:27;;;;;;;7.85;2.55;;;4.70;99.90;;;;;;5154148;27;20106;-80
2023/12/30 02:18:52;;;;;;;5.25;2.70;;;4.70;99.90;;;;;;5154658;27;20491;-79
2023/12/30 02:21:18;;;;;;;10.13;2.90;;;4.70;99.90;;;;;;5154602;27;20075;-79
2023/12/30 02:23:50;;;;;;;9.35;2.65;;;4.70;99.90;;;;;;5136152;27;20355;-79
2023/12/30 02:26:15;;;;;;;6.25;2.42;;;4.70;99.90;;;;;;5154904;27;20475;-79
2023/12/30 02:28:41;;;;;;;8.95;2.17;;;4.70;99.90;;;;;;5154683;27;20019;-79
2023/12/30 02:31:07;;;;;;;9.30;2.22;;;4.70;99.90;;;;;;5154807;27;20367;-79
2023/12/30 02:33:32;;;;;;;8.68;3.00;;;4.70;99.90;;;;;;5154648;27;20023;-79
2023/12/30 02:35:58;;;;;;;8.82;2.50;;;4.70;99.90;;;;;;5154798;27;20447;-79
2023/12/30 02:38:24;;;;;;;5.72;2.45;;;4.70;99.90;;;;;;5154492;27;20023;-79
2023/12/30 02:40:49;;;;;;;9.95;2.40;;;4.70;99.90;;;;;;5154399;27;20113;-79
2023/12/30 02:43:15;;;;;;;10.00;2.90;;;4.70;99.90;;;;;;5153918;27;20443;-79
2023/12/30 02:45:41;;;;;;;9.38;3.13;;;4.70;99.90;;;;;;5155580;27;20042;-80
2023/12/30 02:48:07;;;;;;;7.55;2.47;;;4.70;99.90;;;;;;5154135;27;20065;-81
2023/12/30 02:50:32;;;;;;;6.88;2.47;;;4.70;99.90;;;;;;5155097;27;20027;-81
2023/12/30 02:52:58;;;;;;;7.97;1.85;;;4.70;99.90;;;;;;5154446;27;20068;-81
2023/12/30 02:55:24;;;;;;;9.57;2.05;;;4.80;99.90;;;;;;5135980;27;20026;-81
2023/12/30 02:57:49;;;;;;;8.15;1.60;;;4.90;99.90;;;;;;5154713;27;20050;-81
2023/12/30 03:00:16;;;;;;;3.47;1.33;;;5.00;99.90;;;;;;5153875;27;20022;-81
2023/12/30 03:02:42;;;;;;;5.57;1.83;;;5.10;99.90;;;;;;5154905;27;20400;-81
2023/12/30 03:05:08;;;;;;;6.60;1.63;;;5.10;99.90;;;;;;5154256;27;20026;-81
2023/12/30 03:07:36;;;;;;;7.50;2.42;;;5.20;99.90;;;;;;5154564;27;20027;-81
2023/12/30 03:10:04;;;;;;;5.78;1.63;;;5.20;99.90;;;;;;5154741;27;20026;-81
2023/12/30 03:12:29;;;;;;;6.85;2.15;;;5.30;99.90;;;;;;5154345;27;20041;-81
2023/12/30 03:14:55;;;;;;;3.97;1.50;;;5.30;99.90;;;;;;5135936;27;20405;-81
2023/12/30 03:17:21;;;;;;;8.15;2.08;;;5.30;99.90;;;;;;5153983;27;20019;-81
2023/12/30 03:19:46;;;;;;;4.82;1.90;;;5.30;99.90;;;;;;5154261;27;20431;-81
2023/12/30 03:22:12;;;;;;;3.90;1.75;;;5.30;99.90;;;;;;5154244;27;20124;-81
2023/12/30 03:24:38;;;;;;;7.88;1.85;;;5.40;99.90;;;;;;5154540;27;20337;-81
2023/12/30 03:27:04;;;;;;;7.53;1.90;;;5.40;99.90;;;;;;5153812;27;20030;-80
2023/12/30 03:29:30;;;;;;;9.43;1.60;;;5.40;99.90;;;;;;5153937;27;20444;-81
2023/12/30 03:31:56;;;;;;;6.65;1.40;;;5.30;99.90;;;;;;5154452;27;20094;-81
2023/12/30 03:34:21;;;;;;;4.55;1.05;;;5.40;99.90;;;;;;5153444;27;20023;-81
2023/12/30 03:36:47;;;;;;;7.35;1.00;;;5.40;99.90;;;;;;5154547;27;20460;-80
2023/12/30 03:39:14;;;;;;;6.22;1.23;;;5.50;99.90;;;;;;5153500;27;20077;-81
2023/12/30 03:41:39;;;;;;;7.95;1.45;;;5.50;99.90;;;;;;5154101;27;20023;-80
2023/12/30 03:44:05;;;;;;;2.70;0.68;;;5.50;99.90;;;;;;5135165;27;20396;-81
2023/12/30 03:46:31;;;;;;;4.47;1.10;;;5.50;99.90;;;;;;5154300;27;20050;-81
2023/12/30 03:48:57;;;;;;;4.03;1.20;;;5.60;99.90;;;;;;5154160;27;20045;-81
2023/12/30 03:51:22;;;;;;;6.68;1.15;;;5.60;99.90;;;;;;5153743;27;20043;-80
2023/12/30 03:53:48;;;;;;;6.57;1.10;;;5.50;99.90;;;;;;5153520;27;20404;-81
2023/12/30 03:56:14;;;;;;;3.08;1.13;;;5.50;99.90;;;;;;5134971;27;20025;-80
2023/12/30 03:58:39;;;;;;;3.67;1.13;;;5.50;99.90;;;;;;5153448;27;20307;-80
2023/12/30 04:01:05;;;;;;;1.90;0.68;;;5.50;99.90;;;;;;5153868;27;20023;-81
2023/12/30 04:03:31;;;;;;;4.22;0.90;;;5.50;99.90;;;;;;5152903;27;20025;-81
2023/12/30 04:05:57;;;;;;;4.43;0.82;;;5.40;99.90;;;;;;5154007;27;20424;-80
2023/12/30 04:08:22;;;;;;;3.28;0.98;;;5.40;99.90;;;;;;5153012;27;20058;-80
2023/12/30 04:10:48;;;;;;;3.92;0.75;;;5.40;99.90;;;;;;5153730;27;20027;-80
2023/12/30 04:13:14;;;;;;;3.92;1.02;;;5.40;99.90;;;;;;5134384;27;20030;-80
2023/12/30 04:15:39;;;;;;;7.82;1.17;;;5.40;99.90;;;;;;5153646;27;20019;-80
2023/12/30 04:18:05;;;;;;;5.15;1.23;;;5.30;99.90;;;;;;5153263;27;20057;-80
2023/12/30 04:20:31;;;;;;;3.67;0.95;;;5.40;99.90;;;;;;5152951;27;20027;-80
2023/12/30 04:22:57;;;;;;;4.32;0.98;;;5.30;99.90;;;;;;5153525;27;20027;-80
2023/12/30 04:25:22;;;;;;;2.97;0.70;;;5.30;99.90;;;;;;5150726;27;20026;-80
2023/12/30 04:27:49;;;;;;;3.45;0.75;;;5.30;99.90;;;;;;5132792;27;20113;-80
2023/12/30 04:30:14;;;;;;;4.18;0.80;;;5.40;99.90;;;;;;5131857;27;20042;-79
2023/12/30 04:32:40;;;;;;;4.75;1.38;;;5.40;99.90;;;;;;5132516;27;20031;-80
2023/12/30 04:35:06;;;;;;;6.40;1.13;;;5.40;99.90;;;;;;5132230;27;20023;-79
2023/12/30 04:37:32;;;;;;;4.30;1.00;;;5.40;99.90;;;;;;5132118;27;20050;-80
2023/12/30 04:39:57;;;;;;;1.92;0.60;;;5.40;99.90;;;;;;5132303;27;20401;-79
2023/12/30 04:42:23;;;;;;;3.10;0.85;;;5.40;99.90;;;;;;5131586;27;20023;-79
2023/12/30 04:44:49;;;;;;;5.13;0.60;;;5.50;99.90;;;;;;5132183;27;20040;-79
2023/12/30 04:47:15;;;;;;;5.00;0.77;;;5.50;99.90;;;;;;5132189;27;20113;-80
2023/12/30 04:49:40;;;;;;;6.68;1.25;;;5.40;99.90;;;;;;5131935;27;20031;-79
2023/12/30 04:52:06;;;;;;;3.17;0.68;;;5.50;99.90;;;;;;5132545;27;20042;-80
2023/12/30 04:54:32;;;;;;;4.65;1.30;;;5.50;99.90;;;;;;5131132;27;20476;-80
2023/12/30 04:56:57;;;;;;;3.35;0.90;;;5.50;99.90;;;;;;5131736;27;20102;-80
2023/12/30 04:59:23;;;;;;;8.27;0.68;;;5.50;99.90;;;;;;5131565;27;20282;-80
2023/12/30 05:01:49;;;;;;;4.20;0.95;;;5.50;99.90;;;;;;5132113;27;20019;-80
2023/12/30 05:04:15;;;;;;;5.43;1.02;;;5.50;99.90;;;;;;5130978;27;20064;-80
2023/12/30 05:06:40;;;;;;;6.80;1.20;;;5.50;99.90;;;;;;5132102;27;20471;-79
2023/12/30 05:09:06;;;;;;;4.60;0.98;;;5.50;99.90;;;;;;5133152;27;20027;-78
2023/12/30 05:11:32;;;;;;;4.85;1.05;;;5.50;99.90;;;;;;5132510;27;20023;-79
2023/12/30 05:13:57;;;;;;;2.20;0.68;;;5.50;99.90;;;;;;5114074;27;20404;-79
2023/12/30 05:16:23;;;;;;;6.60;1.25;;;5.50;99.90;;;;;;5131561;27;20022;-79
2023/12/30 05:18:49;;;;;;;5.78;1.30;;;5.50;99.90;;;;;;5113727;28;20486;-81
2023/12/30 05:21:18;;;;;;;4.30;0.68;;;5.50;99.90;;;;;;5112480;28;20043;-80
2023/12/30 05:23:43;;;;;;;5.95;0.95;;;5.50;99.90;;;;;;5132034;28;20154;-79
2023/12/30 05:26:12;;;;;;;6.88;1.00;;;5.50;99.90;;;;;;5131875;28;20083;-80
2023/12/30 05:28:38;;;;;;;6.38;0.85;;;5.50;99.90;;;;;;5131687;28;20092;-80
2023/12/30 05:31:04;;;;;;;7.43;0.90;;;5.50;99.90;;;;;;5131318;28;20023;-80
2023/12/30 05:33:30;;;;;;;7.88;0.80;;;5.60;99.90;;;;;;5130931;28;20015;-80
2023/12/30 05:35:56;;;;;;;7.50;1.40;;;5.60;99.90;;;;;;5131479;28;20399;-80
2023/12/30 05:38:22;;;;;;;5.38;1.05;;;5.60;99.90;;;;;;5131159;28;20106;-80
2023/12/30 05:40:47;;;;;;;6.65;0.77;;;5.70;99.90;;;;;;5131429;28;20094;-79
2023/12/30 05:43:13;;;;;;;8.63;1.10;;;5.70;99.90;;;;;;5112729;28;20034;-79
2023/12/30 05:45:40;;;;;;;4.60;1.15;;;5.70;99.90;;;;;;5131752;28;20025;-79
2023/12/30 05:48:06;;;;;;;3.33;0.70;;;5.70;99.90;;;;;;5131221;28;20340;-79
2023/12/30 05:50:32;;;;;;;4.78;0.80;;;5.80;99.90;;;;;;5132216;27;20151;-79
2023/12/30 05:52:58;;;;;;;2.92;0.60;;;5.80;99.90;;;;;;5135575;27;20023;-79
2023/12/30 05:55:24;;;;;;;4.00;0.73;;;5.80;99.90;;;;;;5135187;27;20102;-79
2023/12/30 05:57:50;;;;;;;8.02;0.90;;;5.90;99.90;;;;;;5135665;27;20449;-79
2023/12/30 06:00:16;;;;;;;5.30;0.73;;;5.90;99.90;;;;;;5134596;27;20038;-79
2023/12/30 06:02:43;;;;;;;10.43;1.33;;;6.00;99.90;;;;;;5117138;27;20106;-79
2023/12/30 06:05:09;;;;;;;6.38;1.02;;;6.10;99.90;;;;;;5135426;27;20436;-78
2023/12/30 06:07:34;;;;;;;8.77;1.45;;;6.00;99.90;;;;;;5116109;27;20098;-78
2023/12/30 06:10:00;;;;;;;8.18;1.42;;;6.20;99.90;;;;;;5135059;27;20027;-78
2023/12/30 06:12:26;;;;;;;10.30;1.52;;;6.20;99.90;;;;;;5134405;27;20023;-78
2023/12/30 06:14:52;;;;;;;8.07;0.85;;;6.30;99.90;;;;;;5134907;27;20019;-79
2023/12/30 06:17:17;;;;;;;2.25;0.90;;;6.30;99.90;;;;;;5134559;27;20099;-79
2023/12/30 06:19:43;;;;;;;11.40;1.20;;;6.40;99.90;;;;;;5135196;27;20131;-79
2023/12/30 06:22:09;;;;;;;16.45;1.40;;;6.40;99.90;;;;;;5135189;27;20019;-80
2023/12/30 06:24:35;;;;;;;9.35;1.58;;;6.50;99.90;;;;;;5116115;27;20637;-79
2023/12/30 06:27:01;;;;;;;11.80;1.13;;;6.50;99.90;;;;;;5135867;27;20110;-79
2023/12/30 06:29:26;;;;;;;10.07;1.55;;;6.60;99.90;;;;;;5134598;27;20095;-79
2023/12/30 06:31:53;;;;;;;10.43;1.40;;;6.60;99.90;;;;;;5134996;27;20083;-78
2023/12/30 06:34:19;;;;;;;10.27;1.27;;;6.60;99.90;;;;;;5115808;27;20404;-78
2023/12/30 06:36:45;;;;;;;8.50;1.58;;;6.70;99.90;;;;;;5134398;27;20130;-77
2023/12/30 06:39:15;;;;;;;14.23;1.58;;;6.70;99.90;;;;;;5134922;27;20030;-77
2023/12/30 06:41:41;;;;;;;11.13;1.70;;;6.80;99.90;;;;;;5134366;27;20028;-78
2023/12/30 06:44:08;;;;;;;7.90;1.58;;;6.80;99.90;;;;;;5134909;27;20019;-78
2023/12/30 06:46:34;;;;;;;10.35;1.48;;;6.80;99.90;;;;;;5134304;27;20066;-78
2023/12/30 06:49:00;;;;;;;11.25;1.33;;;6.80;99.90;;;;;;5134469;27;20077;-77
2023/12/30 06:51:27;;;;;;;9.90;1.73;;;7.00;99.90;;;;;;5115102;27;20408;-78
2023/12/30 06:53:53;;;;;;;8.95;1.17;;;6.90;99.90;;;;;;5134016;27;20468;-77
2023/12/30 06:56:19;;;;;;;5.72;0.90;;;7.00;99.90;;;;;;5133212;27;20027;-78
2023/12/30 06:58:45;;;;;;;5.97;1.30;;;7.00;99.90;;;;;;5134122;27;20019;-77
2023/12/30 07:01:12;;;;;;;4.55;0.77;;;7.20;99.90;;;;;;5133081;27;20456;-78
2023/12/30 07:03:38;;;;;;;6.75;1.08;;;7.30;99.90;;;;;;5132920;27;20029;-78
2023/12/30 07:06:04;;;;;;;11.07;1.20;;;7.20;99.90;;;;;;5133633;27;20019;-78
2023/12/30 07:08:30;;;;;;;5.65;1.10;;;7.30;99.90;;;;;;5133033;27;20023;-78
2023/12/30 07:10:55;;;;;;;6.60;1.50;;;7.40;99.90;;;;;;5115342;27;20129;-79
2023/12/30 07:13:21;;;;;;;11.00;1.95;;;7.40;99.90;;;;;;5133040;27;20034;-78
2023/12/30 07:15:47;;;;;;;11.10;1.50;;;7.40;99.90;;;;;;5133938;27;20496;-78
2023/12/30 07:18:13;;;;;;;7.22;0.90;;;7.40;99.90;;;;;;5134340;27;20025;-78
2023/12/30 07:20:39;;;;;;;10.75;1.70;;;7.60;99.90;;;;;;5133144;27;20031;-79
2023/12/30 07:23:06;;;;;;;8.70;1.40;;;7.60;99.90;;;;;;5133862;27;20027;-78
2023/12/30 07:25:32;;;;;;;10.77;1.70;;;7.50;99.90;;;;;;5133164;27;20011;-79
2023/12/30 07:27:58;;;;;;;8.88;1.35;;;7.60;99.90;;;;;;5133571;27;20511;-78
2023/12/30 07:30:23;;;;;;;10.63;1.70;;;7.70;99.90;;;;;;5133276;27;20029;-79
2023/12/30 07:32:49;;;;;;;7.95;1.42;;;7.60;99.90;;;;;;5133636;27;20448;-78
2023/12/30 07:35:15;;;;;;;6.95;1.50;;;7.70;99.90;;;;;;5133308;27;20027;-79
2023/12/30 07:37:41;;;;;;;8.30;1.33;;;7.70;99.90;;;;;;5132936;27;20511;-79
2023/12/30 07:40:10;;;;;;;12.63;1.85;;;7.60;99.90;;;;;;5133631;27;20026;-84
2023/12/30 07:42:35;;;;;;;13.10;2.13;;;7.80;99.90;;;;;;5133159;27;20040;-81
2023/12/30 07:45:01;;;;;;;14.25;1.60;;;7.70;99.90;;;;;;5133265;27;20019;-81
2023/12/30 07:47:27;;;;;;;7.57;1.55;;;7.90;99.90;;;;;;5133203;27;20015;-82
2023/12/30 07:49:52;;;;;;;11.32;1.55;;;7.80;99.90;;;;;;5133380;27;20370;-82
2023/12/30 07:52:19;;;;;;;7.53;1.58;;;7.80;99.90;;;;;;5114973;27;20524;-81
2023/12/30 07:54:48;;;;;;;10.45;1.70;;;8.00;99.90;;;;;;5133196;27;20107;-84
2023/12/30 07:57:13;;;;;;;4.40;1.45;;;7.90;99.90;;;;;;5114868;27;20026;-83
2023/12/30 07:59:42;;;;;;;3.78;1.10;;;8.00;99.90;;;;;;5132866;27;20023;-83
2023/12/30 08:02:08;;;;;;;5.03;1.08;;;7.90;99.90;;;;;;5114635;27;20103;-83
2023/12/30 08:04:34;;;;;;;4.22;0.70;;;8.00;99.90;;;;;;5114222;27;20137;-84
2023/12/30 08:06:59;;;;;;;4.93;0.85;;;8.10;99.90;;;;;;5114784;27;20043;-82
2023/12/30 08:09:25;;;;;;;5.25;0.55;;;8.20;99.90;;;;;;5132633;27;20066;-80
2023/12/30 08:11:51;;;;;;;2.55;0.60;;;8.30;99.90;;;;;;5133115;27;20042;-78
2023/12/30 08:14:17;;;;;;;1.42;0.40;;;8.40;99.90;;;;;;5132720;27;20023;-78
2023/12/30 08:16:43;;;;;;;3.13;0.50;;;8.30;99.90;;;;;;5132246;27;20023;-78
2023/12/30 08:19:09;;;;;;;1.27;0.60;;;8.40;99.90;;;;;;5132566;27;20023;-78
2023/12/30 08:21:35;;;;;;;2.20;0.43;;;8.50;99.90;;;;;;5132122;27;20023;-79
2023/12/30 08:24:01;;;;;;;1.42;0.40;;;8.60;99.90;;;;;;5132229;27;20011;-79
2023/12/30 08:26:27;;;;;;;3.78;0.70;;;8.70;99.90;;;;;;5113316;27;20076;-80
2023/12/30 08:28:56;;;;;;;1.98;0.70;;;8.60;99.90;;;;;;5132444;27;20027;-80
2023/12/30 08:31:22;;;;;;;1.92;0.30;;;8.80;99.90;;;;;;5132429;27;20027;-81
2023/12/30 08:33:50;;;;;;;1.45;0.30;;;8.90;99.90;;;;;;5113536;27;20050;-80
2023/12/30 08:36:15;;;;;;;1.38;0.35;;;8.80;99.90;;;;;;5132905;27;20516;-82
2023/12/30 08:38:41;;;;;;;5.07;0.45;;;8.90;99.90;;;;;;5131751;27;20090;-82
2023/12/30 08:41:16;;;;;;;2.38;0.40;;;8.90;99.90;;;;;;5132669;27;20032;-86
2023/12/30 08:43:42;;;;;;;0.68;0.30;;;9.10;99.90;;;;;;5113549;27;20055;-83
2023/12/30 08:46:09;;;;;;;1.23;0.50;;;9.10;99.90;;;;;;5114498;27;20076;-80
2023/12/30 08:48:36;;;;;;;1.02;0.50;;;9.20;99.90;;;;;;5131881;27;20018;-80
2023/12/30 08:51:01;;;;;;;2.65;0.60;;;9.30;99.90;;;;;;5114033;27;20086;-80
2023/12/30 08:53:27;;;;;;;2.75;1.10;;;9.30;99.90;;;;;;5131409;27;20066;-79
2023/12/30 08:55:54;;;;;;;0.80;0.20;;;9.30;99.90;;;;;;5127474;27;20360;-78
2023/12/30 08:58:21;;;;;;;2.78;0.68;;;9.60;99.90;;;;;;5093268;28;20047;-79
2023/12/30 09:00:47;;;;;;;0.88;0.40;;;9.60;99.90;;;;;;5110998;28;20383;-80
2023/12/30 09:03:13;;;;;;;1.77;0.22;;;9.80;99.90;;;;;;5111154;28;20507;-82
2023/12/30 09:05:39;;;;;;;0.88;0.30;;;10.00;99.90;;;;;;5111210;28;20064;-82
2023/12/30 09:08:05;;;;;;;1.25;0.45;;;10.00;99.90;;;;;;5111861;28;20050;-81
2023/12/30 09:10:33;;;;;;;1.70;0.52;;;10.00;99.90;;;;;;5092486;28;20424;-80
2023/12/30 09:12:59;;;;;;;1.33;0.30;;;10.00;99.90;;;;;;5111514;28;20339;-79
2023/12/30 09:15:25;;;;;;;1.17;0.40;;;10.00;99.90;;;;;;5111401;28;20024;-78
2023/12/30 09:17:51;;;;;;;0.47;0.20;;;10.00;99.90;;;;;;5110390;28;20467;-79
2023/12/30 09:20:17;;;;;;;1.48;0.38;;;10.00;99.90;;;;;;5111201;28;20067;-78
2023/12/30 09:22:43;;;;;;;4.40;0.60;;;10.10;99.90;;;;;;5110489;28;20094;-78
2023/12/30 09:25:09;;;;;;;0.63;0.20;;;10.10;99.90;;;;;;5110248;28;20447;-79
2023/12/30 09:27:35;;;;;;;0.70;0.32;;;10.20;99.90;;;;;;5110797;28;20552;-79
2023/12/30 09:30:01;;;;;;;1.02;0.20;;;10.10;99.90;;;;;;5111235;28;20030;-79
2023/12/30 09:32:26;;;;;;;2.67;0.40;;;10.10;99.90;;;;;;5110852;28;20064;-78
2023/12/30 09:34:53;;;;;;;1.17;0.40;;;10.20;99.90;;;;;;5110902;28;20131;-78
2023/12/30 09:37:19;;;;;;;1.50;0.32;;;10.20;99.90;;;;;;5111123;28;20038;-78
2023/12/30 09:39:46;;;;;;;0.68;0.43;;;10.30;99.90;;;;;;5110055;28;20379;-78
2023/12/30 09:42:12;;;;;;;2.42;0.50;;;10.30;99.90;;;;;;5112287;27;20027;-78
2023/12/30 09:44:39;;;;;;;3.90;0.93;;;10.40;99.90;;;;;;5140673;27;20015;-78
2023/12/30 09:47:07;;;;;;;5.63;0.90;;;10.50;99.90;;;;;;5140423;27;20042;-78
2023/12/30 09:49:35;;;;;;;2.75;0.95;;;10.60;99.90;;;;;;5122495;27;20335;-78
2023/12/30 09:52:08;;;;;;;5.40;1.05;;;10.60;99.90;;;;;;5142856;27;20072;-78
2023/12/30 09:54:34;;;;;;;4.93;1.27;;;10.60;99.90;;;;;;5124810;27;20044;-77
2023/12/30 09:57:02;;;;;;;8.50;1.10;;;10.50;99.90;;;;;;5153061;27;20022;-78
2023/12/30 09:59:30;;;;;;;5.70;1.05;;;10.50;99.90;;;;;;5153540;27;20029;-79
2023/12/30 10:01:56;;;;;;;4.72;1.02;;;10.50;99.90;;;;;;5153937;27;20494;-79
2023/12/30 10:04:22;;;;;;;5.72;1.17;;;10.40;99.90;;;;;;5153135;27;20019;-77
2023/12/30 10:06:53;;;;;;;6.38;1.55;;;10.30;99.90;;;;;;5154184;27;20046;-78
2023/12/30 10:09:22;;;;;;;6.95;1.58;;;10.30;99.90;;;;;;5153585;27;20022;-81
2023/12/30 10:11:49;;;;;;;11.52;1.75;;;10.20;99.90;;;;;;5153622;27;20053;-79
2023/12/30 10:14:15;;;;;;;8.35;1.70;;;10.20;99.90;;;;;;5153468;27;20069;-79
2023/12/30 10:16:40;;;;;;;12.38;2.08;;;10.20;99.90;;;;;;5153680;27;20050;-79
2023/12/30 10:19:18;;;;;;;10.82;1.65;;;10.20;99.90;;;;;;5153333;27;20487;-79
2023/12/30 10:21:44;;;;;;;10.80;1.50;;;10.20;99.90;;;;;;5153579;27;20375;-78
2023/12/30 10:24:10;;;;;;;6.88;1.75;;;10.20;99.90;;;;;;5153326;27;20023;-79
2023/12/30 10:26:39;;;;;;;9.35;1.70;;;10.20;99.90;;;;;;5152158;27;20079;-79
2023/12/30 10:29:10;;;;;;;8.48;2.42;;;10.20;99.90;;;;;;5153031;27;20497;-79
2023/12/30 10:31:36;;;;;;;9.00;1.75;;;10.20;99.90;;;;;;5154274;27;20074;-78
2023/12/30 10:34:03;;;;;;;10.45;2.15;;;10.20;99.90;;;;;;5154229;27;20061;-79
2023/12/30 10:36:29;;;;;;;4.63;1.00;;;10.20;99.90;;;;;;5144523;27;20372;-83
2023/12/30 10:38:55;;;;;;;4.45;1.20;;;10.00;99.90;;;;;;5105019;27;20030;-78
2023/12/30 10:41:21;;;;;;;5.30;1.13;;;9.80;99.90;;;;;;5126170;27;20035;-78
2023/12/30 10:43:47;;;;;;;3.40;1.00;;;9.60;99.90;;;;;;5135879;27;20398;-78
2023/12/30 10:46:13;;;;;;;3.00;0.88;;;9.50;99.90;;;;;;5137709;27;20056;-77
2023/12/30 10:49:03;;;;;;;6.05;1.00;;;9.30;99.90;;;;;;5136421;27;20046;-79
2023/12/30 10:51:32;;;;;;;3.10;1.02;;;9.20;99.90;;;;;;5129199;27;20035;-77
2023/12/30 10:54:06;;;;;;;6.07;1.15;;;9.20;99.90;;;;;;5133061;28;20027;-78
2023/12/30 10:56:40;;;;;;;4.80;1.30;;;9.20;99.90;;;;;;5136473;28;20040;-80
2023/12/30 10:59:07;;;;;;;3.58;0.90;;;9.10;99.90;;;;;;5136275;28;20020;-77
2023/12/30 11:01:34;;;;;;;5.15;0.82;;;9.10;99.90;;;;;;5134675;28;20039;-79
2023/12/30 11:04:01;;;;;;;4.63;1.40;;;9.10;99.90;;;;;;5134149;28;20020;-77
2023/12/30 11:06:39;;;;;;;7.63;1.20;;;9.10;99.90;;;;;;5116648;28;20078;-78
2023/12/30 11:09:08;;;;;;;5.68;1.27;;;9.10;99.90;;;;;;5115949;28;20016;-77
2023/12/30 11:11:34;;;;;;;6.00;1.20;;;9.20;99.90;;;;;;5097033;28;20068;-77
2023/12/30 11:14:11;;;;;;;6.47;1.60;;;9.20;99.90;;;;;;5115278;28;20019;-77
2023/12/30 11:16:37;;;;;;;8.23;1.77;;;9.20;99.90;;;;;;5115013;28;20016;-78
2023/12/30 11:19:04;;;;;;;14.27;2.13;;;9.20;99.90;;;;;;5118535;28;20015;-80
2023/12/30 11:21:47;;;;;;;5.55;1.40;;;9.20;99.90;;;;;;5096914;28;20168;-79
2023/12/30 11:24:18;;;;;;;7.78;1.75;;;9.30;99.90;;;;;;5115615;28;20024;-80
2023/12/30 11:26:45;;;;;;;10.88;2.60;;;9.30;99.90;;;;;;5096886;28;20432;-80
2023/12/30 11:29:18;;;;;;;9.85;2.28;;;9.30;99.90;;;;;;5096861;28;20024;-79
2023/12/30 11:31:46;;;;;;;7.68;2.35;;;9.30;99.90;;;;;;5115557;28;20194;-77
2023/12/30 11:34:13;;;;;;;8.48;2.15;;;9.30;99.90;;;;;;5115835;28;20023;-77
2023/12/30 11:36:39;;;;;;;11.25;2.15;;;9.30;99.90;;;;;;5096685;28;20405;-79
2023/12/30 11:39:07;;;;;;;13.05;3.08;;;9.20;99.90;;;;;;5114699;28;20201;-78
2023/12/30 11:41:34;;;;;;;11.10;2.80;;;9.20;99.90;;;;;;5114181;28;20039;-77
2023/12/30 11:44:03;;;;;;;11.50;2.28;;;9.20;99.90;;;;;;5114335;28;20020;-78
2023/12/30 11:46:30;;;;;;;10.18;2.90;;;9.20;99.90;;;;;;5114521;28;20047;-77
2023/12/30 11:48:56;;;;;;;14.18;2.83;;;9.20;99.90;;;;;;5114495;28;20115;-80
2023/12/30 11:51:24;;;;;;;11.95;2.15;;;9.10;99.90;;;;;;5114391;28;20035;-79
2023/12/30 11:53:50;;;;;;;12.40;2.97;;;9.10;99.90;;;;;;5113249;28;20153;-78
2023/12/30 11:56:17;;;;;;;11.88;3.13;;;9.10;99.90;;;;;;5113638;28;20028;-78
2023/12/30 11:58:44;;;;;;;13.73;2.63;;;9.10;99.90;;;;;;5113672;28;20030;-78
2023/12/30 12:01:09;;;;;;;13.07;2.95;;;9.10;99.90;;;;;;5113768;28;20454;-78
2023/12/30 12:03:36;;;;;;;13.98;3.05;;;9.00;99.90;;;;;;5095168;28;20050;-80
2023/12/30 12:06:02;;;;;;;16.23;3.88;;;9.00;99.90;;;;;;5118173;27;20019;-82
2023/12/30 12:08:28;;;;;;;12.55;2.70;;;9.00;99.90;;;;;;5107711;27;20363;-83
2023/12/30 12:10:56;;;;;;;19.27;3.33;;;9.00;99.90;;;;;;5115052;27;20141;-83
2023/12/30 12:13:24;;;;;;;13.50;3.25;;;9.00;99.90;;;;;;5115217;27;20023;-83
2023/12/30 12:15:53;;;;;;;13.98;3.85;;;9.00;99.90;;;;;;5133922;27;20023;-83
2023/12/30 12:18:22;;;;;;;13.35;3.17;;;9.00;99.90;;;;;;5133824;27;20025;-83
2023/12/30 12:20:52;;;;;;;16.60;3.50;;;9.10;99.90;;;;;;5115554;27;20113;-83
2023/12/30 12:23:22;;;;;;;18.63;3.72;;;9.00;99.90;;;;;;5115595;27;20027;-83
2023/12/30 12:25:49;;;;;;;16.77;3.03;;;9.00;99.90;;;;;;5118865;27;20011;-84
2023/12/30 12:28:17;;;;;;;14.88;3.40;;;9.00;99.90;;;;;;5115447;27;20084;-83
2023/12/30 12:30:44;;;;;;;14.20;3.22;;;9.00;99.90;;;;;;5133170;27;20153;-83
2023/12/30 12:33:12;;;;;;;18.13;3.63;;;9.00;99.90;;;;;;5116961;27;20356;-83
2023/12/30 12:35:38;;;;;;;18.65;3.50;;;9.00;99.90;;;;;;5134486;27;20030;-84
2023/12/30 12:38:05;;;;;;;17.20;3.45;;;9.00;99.90;;;;;;5116445;27;20019;-84
2023/12/30 12:40:34;;;;;;;17.90;4.53;;;9.00;99.90;;;;;;5116310;27;20050;-83
2023/12/30 12:43:01;;;;;;;17.13;4.07;;;9.00;99.90;;;;;;5114793;27;20027;-82
2023/12/30 12:45:27;;;;;;;20.83;3.47;;;9.00;99.90;;;;;;5133446;27;20058;-83
2023/12/30 12:47:53;;;;;;;13.93;3.00;;;9.10;99.90;;;;;;5114814;27;20119;-83
2023/12/30 12:50:19;;;;;;;16.40;3.53;;;9.10;99.90;;;;;;5133366;27;20031;-83